sensor_id;sensor_type;location;lat;lon;timestamp;pressure;altitude;pressure_sealevel;temperature;humidity
47809;BME280;33573;38.790;-77.084;2023-09-08T00:01:31;100540.50;;;27.56;23.62
47809;BME280;33573;38.790;-77.084;2023-09-08T00:03:56;100554.73;;;27.75;23.12
47809;BME280;33573;38.790;-77.084;2023-09-08T00:06:22;100565.44;;;27.15;23.94
47809;BME280;33573;38.790;-77.084;2023-09-08T00:08:47;100568.86;;;27.52;24.16
47809;BME280;33573;38.790;-77.084;2023-09-08T00:11:12;100564.57;;;26.28;24.63
47809;BME280;33573;38.790;-77.084;2023-09-08T00:13:38;100563.11;;;25.45;24.74
47809;BME280;33573;38.790;-77.084;2023-09-08T00:16:03;100570.31;;;25.73;24.35
47809;BME280;33573;38.790;-77.084;2023-09-08T00:18:29;100578.15;;;26.13;24.22
47809;BME280;33573;38.790;-77.084;2023-09-08T00:20:54;100585.24;;;26.65;23.88
47809;BME280;33573;38.790;-77.084;2023-09-08T00:23:19;100590.82;;;27.20;23.96
47809;BME280;33573;38.790;-77.084;2023-09-08T00:25:45;100595.27;;;27.93;23.42
47809;BME280;33573;38.790;-77.084;2023-09-08T00:28:10;100593.79;;;28.11;23.75
47809;BME280;33573;38.790;-77.084;2023-09-08T00:30:36;100601.77;;;27.75;23.95
47809;BME280;33573;38.790;-77.084;2023-09-08T00:33:01;100606.05;;;27.73;24.34
47809;BME280;33573;38.790;-77.084;2023-09-08T00:35:26;100603.72;;;27.08;24.21
47809;BME280;33573;38.790;-77.084;2023-09-08T00:38:01;100608.59;;;26.33;24.52
47809;BME280;33573;38.790;-77.084;2023-09-08T00:40:22;100610.25;;;26.46;23.93
47809;BME280;33573;38.790;-77.084;2023-09-08T00:42:48;100613.58;;;27.18;23.50
47809;BME280;33573;38.790;-77.084;2023-09-08T00:45:17;100615.80;;;27.42;23.75
47809;BME280;33573;38.790;-77.084;2023-09-08T00:47:33;100610.84;;;26.53;24.55
47809;BME280;33573;38.790;-77.084;2023-09-08T00:49:59;100599.62;;;26.26;23.94
47809;BME280;33573;38.790;-77.084;2023-09-08T00:52:33;100592.91;;;25.84;24.32
47809;BME280;33573;38.790;-77.084;2023-09-08T00:54:50;100598.56;;;25.79;23.98
47809;BME280;33573;38.790;-77.084;2023-09-08T00:57:20;100611.83;;;25.45;24.49
47809;BME280;33573;38.790;-77.084;2023-09-08T00:59:45;100626.29;;;24.99;24.20
47809;BME280;33573;38.790;-77.084;2023-09-08T01:02:11;100632.00;;;24.94;24.13
47809;BME280;33573;38.790;-77.084;2023-09-08T01:04:36;100636.08;;;24.69;23.69
47809;BME280;33573;38.790;-77.084;2023-09-08T01:07:02;100643.44;;;24.53;24.11
47809;BME280;33573;38.790;-77.084;2023-09-08T01:09:27;100650.47;;;24.66;23.59
47809;BME280;33573;38.790;-77.084;2023-09-08T01:11:52;100648.04;;;24.93;23.43
47809;BME280;33573;38.790;-77.084;2023-09-08T01:14:22;100639.53;;;25.47;22.98
47809;BME280;33573;38.790;-77.084;2023-09-08T01:16:43;100641.95;;;24.98;23.16
47809;BME280;33573;38.790;-77.084;2023-09-08T01:19:12;100646.66;;;24.08;23.70
47809;BME280;33573;38.790;-77.084;2023-09-08T01:21:40;100647.60;;;24.14;23.72
47809;BME280;33573;38.790;-77.084;2023-09-08T01:24:17;100645.52;;;23.84;23.97
47809;BME280;33573;38.790;-77.084;2023-09-08T01:26:29;100648.55;;;23.61;23.83
47809;BME280;33573;38.790;-77.084;2023-09-08T01:28:54;100653.32;;;24.68;22.92
47809;BME280;33573;38.790;-77.084;2023-09-08T01:31:16;100662.02;;;24.20;23.28
47809;BME280;33573;38.790;-77.084;2023-09-08T01:33:36;100670.00;;;23.54;23.67
47809;BME280;33573;38.790;-77.084;2023-09-08T01:36:06;100679.31;;;23.61;23.59
47809;BME280;33573;38.790;-77.084;2023-09-08T01:38:26;100686.05;;;24.21;22.97
47809;BME280;33573;38.790;-77.084;2023-09-08T01:40:57;100695.29;;;24.38;22.84
47809;BME280;33573;38.790;-77.084;2023-09-08T01:43:22;100702.55;;;24.32;22.82
47809;BME280;33573;38.790;-77.084;2023-09-08T01:45:48;100708.18;;;23.55;23.17
47809;BME280;33573;38.790;-77.084;2023-09-08T01:48:08;100715.12;;;23.88;23.17
47809;BME280;33573;38.790;-77.084;2023-09-08T01:50:43;100712.16;;;23.94;22.97
47809;BME280;33573;38.790;-77.084;2023-09-08T01:52:59;100711.54;;;23.94;22.95
47809;BME280;33573;38.790;-77.084;2023-09-08T01:55:29;100719.94;;;23.57;23.08
47809;BME280;33573;38.790;-77.084;2023-09-08T01:57:55;100736.77;;;24.20;22.85
47809;BME280;33573;38.790;-77.084;2023-09-08T02:00:21;100747.55;;;24.03;22.68
47809;BME280;33573;38.790;-77.084;2023-09-08T02:02:46;100754.03;;;23.64;23.04
47809;BME280;33573;38.790;-77.084;2023-09-08T02:05:15;100758.49;;;23.47;22.93
47809;BME280;33573;38.790;-77.084;2023-09-08T02:07:31;100757.99;;;23.23;23.01
47809;BME280;33573;38.790;-77.084;2023-09-08T02:09:57;100758.81;;;23.97;22.71
47809;BME280;33573;38.790;-77.084;2023-09-08T02:12:31;100760.39;;;23.01;23.17
47809;BME280;33573;38.790;-77.084;2023-09-08T02:14:53;100765.89;;;23.05;23.09
47809;BME280;33573;38.790;-77.084;2023-09-08T02:17:18;100771.84;;;23.57;23.07
47809;BME280;33573;38.790;-77.084;2023-09-08T02:19:47;100774.06;;;23.83;22.71
47809;BME280;33573;38.790;-77.084;2023-09-08T02:22:09;100769.24;;;23.42;22.98
47809;BME280;33573;38.790;-77.084;2023-09-08T02:24:34;100772.09;;;23.13;22.94
47809;BME280;33573;38.790;-77.084;2023-09-08T02:27:04;100774.61;;;23.10;23.14
47809;BME280;33573;38.790;-77.084;2023-09-08T02:29:25;100771.96;;;23.32;22.77
47809;BME280;33573;38.790;-77.084;2023-09-08T02:31:45;100776.87;;;22.62;23.36
47809;BME280;33573;38.790;-77.084;2023-09-08T02:34:11;100774.89;;;23.72;22.63
47809;BME280;33573;38.790;-77.084;2023-09-08T02:36:41;100768.73;;;24.35;22.26
47809;BME280;33573;38.790;-77.084;2023-09-08T02:39:01;100763.74;;;24.18;22.69
47809;BME280;33573;38.790;-77.084;2023-09-08T02:41:32;100759.89;;;24.59;22.70
47809;BME280;33573;38.790;-77.084;2023-09-08T02:43:52;100753.03;;;25.04;22.68
47809;BME280;33573;38.790;-77.084;2023-09-08T02:46:23;100741.40;;;24.60;22.99
47809;BME280;33573;38.790;-77.084;2023-09-08T02:48:43;100739.93;;;24.19;23.31
47809;BME280;33573;38.790;-77.084;2023-09-08T02:51:14;100735.39;;;24.07;23.32
47809;BME280;33573;38.790;-77.084;2023-09-08T02:53:34;100734.27;;;23.79;23.01
47809;BME280;33573;38.790;-77.084;2023-09-08T02:56:08;100737.63;;;24.09;22.60
47809;BME280;33573;38.790;-77.084;2023-09-08T02:58:30;100742.88;;;24.72;22.23
47809;BME280;33573;38.790;-77.084;2023-09-08T03:00:55;100747.51;;;24.94;22.26
47809;BME280;33573;38.790;-77.084;2023-09-08T03:03:15;100747.58;;;25.94;21.77
47809;BME280;33573;38.790;-77.084;2023-09-08T03:05:46;100730.14;;;25.73;22.18
47809;BME280;33573;38.790;-77.084;2023-09-08T03:08:11;100714.22;;;24.75;22.64
47809;BME280;33573;38.790;-77.084;2023-09-08T03:10:41;100699.80;;;24.14;23.05
47809;BME280;33573;38.790;-77.084;2023-09-08T03:12:57;100696.44;;;23.27;23.50
47809;BME280;33573;38.790;-77.084;2023-09-08T03:15:28;100679.04;;;24.61;22.26
47809;BME280;33573;38.790;-77.084;2023-09-08T03:17:48;100670.49;;;24.93;22.35
47809;BME280;33573;38.790;-77.084;2023-09-08T03:20:19;100658.47;;;25.78;21.84
47809;BME280;33573;38.790;-77.084;2023-09-08T03:22:39;100641.68;;;26.26;21.69
47809;BME280;33573;38.790;-77.084;2023-09-08T03:25:09;100630.73;;;25.89;21.98
47809;BME280;33573;38.790;-77.084;2023-09-08T03:27:35;100623.81;;;25.55;22.29
47809;BME280;33573;38.790;-77.084;2023-09-08T03:30:00;100615.36;;;24.72;22.57
47809;BME280;33573;38.790;-77.084;2023-09-08T03:32:29;100605.52;;;24.54;22.41
47809;BME280;33573;38.790;-77.084;2023-09-08T03:34:46;100595.99;;;24.71;22.19
47809;BME280;33573;38.790;-77.084;2023-09-08T03:37:11;100591.53;;;26.05;21.46
47809;BME280;33573;38.790;-77.084;2023-09-08T03:39:41;100587.94;;;26.34;21.41
47809;BME280;33573;38.790;-77.084;2023-09-08T03:42:07;100583.07;;;26.03;21.87
47809;BME280;33573;38.790;-77.084;2023-09-08T03:44:27;100587.42;;;26.64;21.60
47809;BME280;33573;38.790;-77.084;2023-09-08T03:46:58;100592.34;;;26.38;21.79
47809;BME280;33573;38.790;-77.084;2023-09-08T03:49:23;100598.38;;;26.18;22.15
47809;BME280;33573;38.790;-77.084;2023-09-08T03:51:43;100599.89;;;26.21;21.63
47809;BME280;33573;38.790;-77.084;2023-09-08T03:54:14;100609.79;;;24.79;22.49
47809;BME280;33573;38.790;-77.084;2023-09-08T03:56:34;100624.47;;;25.19;22.01
47809;BME280;33573;38.790;-77.084;2023-09-08T03:59:00;100627.80;;;24.82;22.39
47809;BME280;33573;38.790;-77.084;2023-09-08T04:01:25;100631.98;;;25.75;21.96
47809;BME280;33573;38.790;-77.084;2023-09-08T04:03:56;100638.26;;;26.43;21.42
47809;BME280;33573;38.790;-77.084;2023-09-08T04:06:21;100641.05;;;26.22;21.75
47809;BME280;33573;38.790;-77.084;2023-09-08T04:08:50;100645.52;;;27.06;21.49
47809;BME280;33573;38.790;-77.084;2023-09-08T04:11:07;100651.03;;;25.95;22.13
47809;BME280;33573;38.790;-77.084;2023-09-08T04:13:32;100669.44;;;25.85;22.51
47809;BME280;33573;38.790;-77.084;2023-09-08T04:15:57;100677.63;;;24.74;23.42
47809;BME280;33573;38.790;-77.084;2023-09-08T04:18:23;100663.49;;;24.90;22.84
47809;BME280;33573;38.790;-77.084;2023-09-08T04:20:48;100671.76;;;25.52;22.29
47809;BME280;33573;38.790;-77.084;2023-09-08T04:23:14;100674.17;;;26.16;21.88
47809;BME280;33573;38.790;-77.084;2023-09-08T04:25:39;100678.32;;;25.78;22.18
47809;BME280;33573;38.790;-77.084;2023-09-08T04:28:05;100673.09;;;26.75;21.74
47809;BME280;33573;38.790;-77.084;2023-09-08T04:30:30;100680.18;;;25.69;22.60
47809;BME280;33573;38.790;-77.084;2023-09-08T04:32:55;100679.71;;;26.27;22.10
47809;BME280;33573;38.790;-77.084;2023-09-08T04:35:26;100678.47;;;26.47;22.46
47809;BME280;33573;38.790;-77.084;2023-09-08T04:37:46;100684.03;;;26.37;22.46
47809;BME280;33573;38.790;-77.084;2023-09-08T04:40:17;100683.70;;;26.46;22.22
47809;BME280;33573;38.790;-77.084;2023-09-08T04:42:37;100696.84;;;25.76;21.99
47809;BME280;33573;38.790;-77.084;2023-09-08T04:45:08;100694.50;;;26.11;21.75
47809;BME280;33573;38.790;-77.084;2023-09-08T04:47:28;100695.60;;;26.64;21.65
47809;BME280;33573;38.790;-77.084;2023-09-08T04:49:58;100697.89;;;26.66;21.59
47809;BME280;33573;38.790;-77.084;2023-09-08T04:52:18;100700.91;;;26.63;21.78
47809;BME280;33573;38.790;-77.084;2023-09-08T04:54:44;100714.13;;;26.03;22.49
47809;BME280;33573;38.790;-77.084;2023-09-08T04:57:09;100713.48;;;26.44;22.33
47809;BME280;33573;38.790;-77.084;2023-09-08T04:59:35;100721.25;;;26.84;22.11
47809;BME280;33573;38.790;-77.084;2023-09-08T05:02:00;100720.66;;;26.51;22.51
47809;BME280;33573;38.790;-77.084;2023-09-08T05:04:26;100727.56;;;26.73;22.28
47809;BME280;33573;38.790;-77.084;2023-09-08T05:06:51;100733.34;;;25.88;23.05
47809;BME280;33573;38.790;-77.084;2023-09-08T05:09:21;100729.43;;;25.97;22.73
47809;BME280;33573;38.790;-77.084;2023-09-08T05:11:42;100730.42;;;25.53;22.42
47809;BME280;33573;38.790;-77.084;2023-09-08T05:14:07;100741.02;;;26.65;21.60
47809;BME280;33573;38.790;-77.084;2023-09-08T05:16:42;100754.13;;;26.53;21.76
47809;BME280;33573;38.790;-77.084;2023-09-08T05:18:58;100752.22;;;26.11;22.46
47809;BME280;33573;38.790;-77.084;2023-09-08T05:21:23;100749.22;;;26.35;22.17
47809;BME280;33573;38.790;-77.084;2023-09-08T05:23:49;100758.02;;;26.75;22.16
47809;BME280;33573;38.790;-77.084;2023-09-08T05:26:14;100758.06;;;26.38;22.46
47809;BME280;33573;38.790;-77.084;2023-09-08T05:28:39;100751.56;;;26.53;22.66
47809;BME280;33573;38.790;-77.084;2023-09-08T05:31:05;100748.16;;;26.18;23.02
47809;BME280;33573;38.790;-77.084;2023-09-08T05:33:30;100748.33;;;26.58;22.63
47809;BME280;33573;38.790;-77.084;2023-09-08T05:36:01;100746.72;;;26.82;22.72
47809;BME280;33573;38.790;-77.084;2023-09-08T05:38:21;100748.96;;;26.76;22.62
47809;BME280;33573;38.790;-77.084;2023-09-08T05:40:46;100751.10;;;26.66;22.58
47809;BME280;33573;38.790;-77.084;2023-09-08T05:43:17;100750.92;;;26.44;22.83
47809;BME280;33573;38.790;-77.084;2023-09-08T05:45:42;100756.01;;;25.90;22.73
47809;BME280;33573;38.790;-77.084;2023-09-08T05:48:03;100760.60;;;26.00;22.37
47809;BME280;33573;38.790;-77.084;2023-09-08T05:50:28;100768.29;;;26.33;22.09
47809;BME280;33573;38.790;-77.084;2023-09-08T05:52:54;100774.81;;;26.84;22.05
47809;BME280;33573;38.790;-77.084;2023-09-08T05:55:19;100781.05;;;26.15;22.60
47809;BME280;33573;38.790;-77.084;2023-09-08T05:57:44;100779.27;;;26.37;22.59
47809;BME280;33573;38.790;-77.084;2023-09-08T06:00:10;100771.32;;;26.00;23.22
47809;BME280;33573;38.790;-77.084;2023-09-08T06:02:35;100776.57;;;26.83;22.69
47809;BME280;33573;38.790;-77.084;2023-09-08T06:05:06;100778.29;;;27.11;22.53
47809;BME280;33573;38.790;-77.084;2023-09-08T06:07:35;100785.12;;;26.27;23.12
47809;BME280;33573;38.790;-77.084;2023-09-08T06:09:51;100787.06;;;26.44;23.08
47809;BME280;33573;38.790;-77.084;2023-09-08T06:12:17;100789.66;;;26.96;22.74
47809;BME280;33573;38.790;-77.084;2023-09-08T06:14:43;100796.54;;;27.15;22.64
47809;BME280;33573;38.790;-77.084;2023-09-08T06:17:08;100789.86;;;27.05;22.82
47809;BME280;33573;38.790;-77.084;2023-09-08T06:19:33;100794.03;;;26.88;22.75
47809;BME280;33573;38.790;-77.084;2023-09-08T06:21:58;100790.90;;;26.23;22.46
47809;BME280;33573;38.790;-77.084;2023-09-08T06:24:29;100784.99;;;26.43;22.49
47809;BME280;33573;38.790;-77.084;2023-09-08T06:26:49;100777.35;;;26.43;22.59
47809;BME280;33573;38.790;-77.084;2023-09-08T06:29:15;100785.31;;;26.97;22.31
47809;BME280;33573;38.790;-77.084;2023-09-08T06:31:45;100785.42;;;26.31;23.04
47809;BME280;33573;38.790;-77.084;2023-09-08T06:34:05;100790.39;;;26.82;22.58
47809;BME280;33573;38.790;-77.084;2023-09-08T06:36:31;100791.98;;;26.30;23.11
47809;BME280;33573;38.790;-77.084;2023-09-08T06:38:56;100799.34;;;26.80;22.77
47809;BME280;33573;38.790;-77.084;2023-09-08T06:41:27;100802.75;;;26.54;23.30
47809;BME280;33573;38.790;-77.084;2023-09-08T06:43:47;100801.50;;;26.23;23.49
47809;BME280;33573;38.790;-77.084;2023-09-08T06:46:12;100798.39;;;26.29;23.51
47809;BME280;33573;38.790;-77.084;2023-09-08T06:48:38;100796.60;;;27.08;23.17
47809;BME280;33573;38.790;-77.084;2023-09-08T06:51:03;100795.01;;;26.72;23.26
47809;BME280;33573;38.790;-77.084;2023-09-08T06:53:35;100791.59;;;26.37;23.63
47809;BME280;33573;38.790;-77.084;2023-09-08T06:55:54;100787.23;;;26.17;23.71
47809;BME280;33573;38.790;-77.084;2023-09-08T06:58:24;100788.15;;;25.56;23.55
47809;BME280;33573;38.790;-77.084;2023-09-08T07:00:50;100795.12;;;26.16;22.68
47809;BME280;33573;38.790;-77.084;2023-09-08T07:03:10;100800.40;;;25.70;23.08
47809;BME280;33573;38.790;-77.084;2023-09-08T07:05:45;100807.21;;;26.01;23.03
47809;BME280;33573;38.790;-77.084;2023-09-08T07:08:01;100810.88;;;26.43;22.89
47809;BME280;33573;38.790;-77.084;2023-09-08T07:10:26;100816.08;;;26.35;23.10
47809;BME280;33573;38.790;-77.084;2023-09-08T07:13:01;100815.48;;;26.10;23.42
47809;BME280;33573;38.790;-77.084;2023-09-08T07:15:17;100821.55;;;26.34;23.36
47809;BME280;33573;38.790;-77.084;2023-09-08T07:17:43;100839.85;;;26.23;23.58
47809;BME280;33573;38.790;-77.084;2023-09-08T07:20:09;100844.79;;;26.45;23.53
47809;BME280;33573;38.790;-77.084;2023-09-08T07:22:33;100844.81;;;26.61;23.59
47809;BME280;33573;38.790;-77.084;2023-09-08T07:24:59;100836.40;;;26.95;23.65
47809;BME280;33573;38.790;-77.084;2023-09-08T07:27:24;100816.53;;;26.50;23.83
47809;BME280;33573;38.790;-77.084;2023-09-08T07:29:50;100795.00;;;27.02;23.63
47809;BME280;33573;38.790;-77.084;2023-09-08T07:32:15;100803.85;;;26.74;23.50
47809;BME280;33573;38.790;-77.084;2023-09-08T07:34:40;100817.02;;;26.83;23.77
47809;BME280;33573;38.790;-77.084;2023-09-08T07:37:06;100816.29;;;26.94;23.79
47809;BME280;33573;38.790;-77.084;2023-09-08T07:39:31;100824.01;;;26.25;23.96
47809;BME280;33573;38.790;-77.084;2023-09-08T07:41:57;100823.19;;;25.73;23.49
47809;BME280;33573;38.790;-77.084;2023-09-08T07:44:22;100825.11;;;26.42;23.00
47809;BME280;33573;38.790;-77.084;2023-09-08T07:46:47;100826.69;;;26.21;23.44
47809;BME280;33573;38.790;-77.084;2023-09-08T07:49:13;100823.61;;;26.68;23.19
47809;BME280;33573;38.790;-77.084;2023-09-08T07:51:38;100822.19;;;26.39;23.41
47809;BME280;33573;38.790;-77.084;2023-09-08T07:54:04;100833.07;;;27.06;23.04
47809;BME280;33573;38.790;-77.084;2023-09-08T07:56:29;100836.03;;;27.01;23.46
47809;BME280;33573;38.790;-77.084;2023-09-08T07:58:54;100836.26;;;26.71;23.85
47809;BME280;33573;38.790;-77.084;2023-09-08T08:01:20;100843.88;;;26.45;24.16
47809;BME280;33573;38.790;-77.084;2023-09-08T08:03:45;100843.33;;;26.82;23.92
47809;BME280;33573;38.790;-77.084;2023-09-08T08:06:10;100833.48;;;27.26;23.39
47809;BME280;33573;38.790;-77.084;2023-09-08T08:08:36;100824.56;;;26.43;24.14
47809;BME280;33573;38.790;-77.084;2023-09-08T08:11:01;100831.29;;;26.01;24.37
47809;BME280;33573;38.790;-77.084;2023-09-08T08:13:27;100839.23;;;26.62;24.19
47809;BME280;33573;38.790;-77.084;2023-09-08T08:15:52;100839.32;;;26.65;24.22
47809;BME280;33573;38.790;-77.084;2023-09-08T08:18:17;100842.29;;;26.21;24.57
47809;BME280;33573;38.790;-77.084;2023-09-08T08:20:43;100849.66;;;26.92;24.11
47809;BME280;33573;38.790;-77.084;2023-09-08T08:23:09;100847.24;;;26.47;24.33
47809;BME280;33573;38.790;-77.084;2023-09-08T08:25:34;100842.81;;;26.15;24.61
47809;BME280;33573;38.790;-77.084;2023-09-08T08:27:59;100850.14;;;26.49;24.65
47809;BME280;33573;38.790;-77.084;2023-09-08T08:30:25;100853.38;;;27.23;24.29
47809;BME280;33573;38.790;-77.084;2023-09-08T08:32:50;100848.46;;;27.07;24.26
47809;BME280;33573;38.790;-77.084;2023-09-08T08:35:15;100847.08;;;25.42;25.32
47809;BME280;33573;38.790;-77.084;2023-09-08T08:37:41;100847.38;;;26.41;24.03
47809;BME280;33573;38.790;-77.084;2023-09-08T08:40:08;100842.29;;;26.28;23.42
47809;BME280;33573;38.790;-77.084;2023-09-08T08:42:32;100845.75;;;26.88;23.29
47809;BME280;33573;38.790;-77.084;2023-09-08T08:44:58;100845.43;;;26.65;23.63
47809;BME280;33573;38.790;-77.084;2023-09-08T08:47:23;100847.60;;;26.31;24.05
47809;BME280;33573;38.790;-77.084;2023-09-08T08:49:49;100853.04;;;27.01;23.60
47809;BME280;33573;38.790;-77.084;2023-09-08T08:52:13;100852.94;;;26.55;23.70
47809;BME280;33573;38.790;-77.084;2023-09-08T08:54:39;100845.53;;;26.33;24.24
47809;BME280;33573;38.790;-77.084;2023-09-08T08:57:04;100845.31;;;26.57;24.14
47809;BME280;33573;38.790;-77.084;2023-09-08T08:59:30;100848.90;;;26.52;24.40
47809;BME280;33573;38.790;-77.084;2023-09-08T09:01:56;100852.75;;;26.76;24.14
47809;BME280;33573;38.790;-77.084;2023-09-08T09:04:20;100857.34;;;26.96;24.37
47809;BME280;33573;38.790;-77.084;2023-09-08T09:06:45;100860.57;;;26.84;24.46
47809;BME280;33573;38.790;-77.084;2023-09-08T09:09:11;100858.11;;;26.84;24.59
47809;BME280;33573;38.790;-77.084;2023-09-08T09:11:36;100864.32;;;26.41;24.78
47809;BME280;33573;38.790;-77.084;2023-09-08T09:14:02;100872.52;;;26.94;24.42
47809;BME280;33573;38.790;-77.084;2023-09-08T09:16:27;100874.96;;;26.74;24.51
47809;BME280;33573;38.790;-77.084;2023-09-08T09:18:57;100873.69;;;26.86;24.47
47809;BME280;33573;38.790;-77.084;2023-09-08T09:21:18;100874.99;;;26.40;24.84
47809;BME280;33573;38.790;-77.084;2023-09-08T09:23:43;100882.57;;;26.94;24.60
47809;BME280;33573;38.790;-77.084;2023-09-08T09:26:08;100888.84;;;26.88;24.62
47809;BME280;33573;38.790;-77.084;2023-09-08T09:28:34;100886.39;;;27.23;24.40
47809;BME280;33573;38.790;-77.084;2023-09-08T09:30:59;100882.55;;;26.21;25.18
47809;BME280;33573;38.790;-77.084;2023-09-08T09:33:25;100877.89;;;26.06;25.33
47809;BME280;33573;38.790;-77.084;2023-09-08T09:35:51;100874.09;;;26.20;25.36
47809;BME280;33573;38.790;-77.084;2023-09-08T09:38:16;100872.64;;;26.74;24.97
47809;BME280;33573;38.790;-77.084;2023-09-08T09:40:41;100873.95;;;27.20;24.81
47809;BME280;33573;38.790;-77.084;2023-09-08T09:43:07;100872.73;;;26.95;24.81
47809;BME280;33573;38.790;-77.084;2023-09-08T09:45:32;100875.81;;;27.15;24.69
47809;BME280;33573;38.790;-77.084;2023-09-08T09:47:57;100876.74;;;26.53;25.00
47809;BME280;33573;38.790;-77.084;2023-09-08T09:50:28;100873.47;;;26.29;24.59
47809;BME280;33573;38.790;-77.084;2023-09-08T09:52:48;100880.96;;;25.51;25.03
47809;BME280;33573;38.790;-77.084;2023-09-08T09:55:13;100878.00;;;26.37;24.15
47809;BME280;33573;38.790;-77.084;2023-09-08T09:57:39;100882.48;;;25.78;25.02
47809;BME280;33573;38.790;-77.084;2023-09-08T10:00:05;100883.88;;;26.01;24.81
47809;BME280;33573;38.790;-77.084;2023-09-08T10:02:30;100881.27;;;26.85;24.46
47809;BME280;33573;38.790;-77.084;2023-09-08T10:04:55;100885.44;;;26.59;24.57
47809;BME280;33573;38.790;-77.084;2023-09-08T10:07:21;100889.85;;;26.94;24.54
47809;BME280;33573;38.790;-77.084;2023-09-08T10:09:46;100889.81;;;26.36;24.87
47809;BME280;33573;38.790;-77.084;2023-09-08T10:12:14;100885.06;;;26.47;24.84
47809;BME280;33573;38.790;-77.084;2023-09-08T10:14:40;100888.34;;;26.91;24.76
47809;BME280;33573;38.790;-77.084;2023-09-08T10:17:02;100894.72;;;27.29;24.46
47809;BME280;33573;38.790;-77.084;2023-09-08T10:19:28;100901.08;;;27.08;24.53
47809;BME280;33573;38.790;-77.084;2023-09-08T10:21:57;100905.62;;;27.17;24.73
47809;BME280;33573;38.790;-77.084;2023-09-08T10:24:22;100916.56;;;26.67;25.02
47809;BME280;33573;38.790;-77.084;2023-09-08T10:26:55;100918.01;;;27.21;24.82
47809;BME280;33573;38.790;-77.084;2023-09-08T10:29:10;100917.77;;;26.97;24.82
47809;BME280;33573;38.790;-77.084;2023-09-08T10:31:34;100918.26;;;26.68;25.04
47809;BME280;33573;38.790;-77.084;2023-09-08T10:34:00;100917.98;;;26.42;25.44
47809;BME280;33573;38.790;-77.084;2023-09-08T10:36:25;100917.14;;;26.48;25.44
47809;BME280;33573;38.790;-77.084;2023-09-08T10:38:50;100916.66;;;26.83;25.10
47809;BME280;33573;38.790;-77.084;2023-09-08T10:41:27;100920.59;;;27.33;24.93
47809;BME280;33573;38.790;-77.084;2023-09-08T10:43:42;100922.23;;;26.70;25.63
47809;BME280;33573;38.790;-77.084;2023-09-08T10:46:09;100921.10;;;26.42;25.90
47809;BME280;33573;38.790;-77.084;2023-09-08T10:48:40;100920.57;;;25.83;26.43
47809;BME280;33573;38.790;-77.084;2023-09-08T10:50:57;100921.44;;;26.12;26.62
47809;BME280;33573;38.790;-77.084;2023-09-08T10:53:23;100919.02;;;26.81;25.79
47809;BME280;33573;38.790;-77.084;2023-09-08T10:55:49;100920.46;;;26.63;25.93
47809;BME280;33573;38.790;-77.084;2023-09-08T10:58:18;100931.86;;;26.18;26.33
47809;BME280;33573;38.790;-77.084;2023-09-08T11:00:45;100933.67;;;27.02;25.98
47809;BME280;33573;38.790;-77.084;2023-09-08T11:03:04;100937.75;;;26.72;26.61
47809;BME280;33573;38.790;-77.084;2023-09-08T11:05:30;100942.84;;;26.49;26.80
47809;BME280;33573;38.790;-77.084;2023-09-08T11:07:55;100945.11;;;26.07;26.99
47809;BME280;33573;38.790;-77.084;2023-09-08T11:10:20;100948.48;;;26.08;26.88
47809;BME280;33573;38.790;-77.084;2023-09-08T11:12:45;100953.73;;;26.22;26.80
47809;BME280;33573;38.790;-77.084;2023-09-08T11:15:11;100956.63;;;26.44;26.66
47809;BME280;33573;38.790;-77.084;2023-09-08T11:17:38;100959.90;;;26.66;26.36
47809;BME280;33573;38.790;-77.084;2023-09-08T11:20:03;100959.36;;;26.52;26.50
47809;BME280;33573;38.790;-77.084;2023-09-08T11:22:27;100962.23;;;26.27;26.64
47809;BME280;33573;38.790;-77.084;2023-09-08T11:24:53;100960.31;;;26.36;26.71
47809;BME280;33573;38.790;-77.084;2023-09-08T11:27:18;100955.90;;;26.68;26.23
47809;BME280;33573;38.790;-77.084;2023-09-08T11:29:44;100962.41;;;25.73;27.27
47809;BME280;33573;38.790;-77.084;2023-09-08T11:32:09;100964.74;;;24.44;29.22
47809;BME280;33573;38.790;-77.084;2023-09-08T11:34:34;100961.28;;;24.26;29.42
47809;BME280;33573;38.790;-77.084;2023-09-08T11:36:59;100965.26;;;25.53;28.06
47809;BME280;33573;38.790;-77.084;2023-09-08T11:39:25;100967.15;;;24.49;29.24
47809;BME280;33573;38.790;-77.084;2023-09-08T11:41:50;100975.01;;;24.80;28.97
47809;BME280;33573;38.790;-77.084;2023-09-08T11:44:16;100981.06;;;25.06;28.77
47809;BME280;33573;38.790;-77.084;2023-09-08T11:46:41;100978.68;;;24.39;29.44
47809;BME280;33573;38.790;-77.084;2023-09-08T11:49:06;100982.22;;;24.96;28.96
47809;BME280;33573;38.790;-77.084;2023-09-08T11:51:32;100982.16;;;24.72;29.09
47809;BME280;33573;38.790;-77.084;2023-09-08T11:53:57;100991.10;;;25.05;30.43
47809;BME280;33573;38.790;-77.084;2023-09-08T11:56:23;100985.98;;;23.86;32.52
47809;BME280;33573;38.790;-77.084;2023-09-08T11:58:48;100984.26;;;24.04;32.07
47809;BME280;33573;38.790;-77.084;2023-09-08T12:01:14;100982.82;;;23.91;31.05
47809;BME280;33573;38.790;-77.084;2023-09-08T12:06:04;100983.24;;;24.66;29.92
47809;BME280;33573;38.790;-77.084;2023-09-08T12:08:30;100982.48;;;24.31;30.49
47809;BME280;33573;38.790;-77.084;2023-09-08T12:10:55;100983.90;;;24.60;30.20
47809;BME280;33573;38.790;-77.084;2023-09-08T12:13:21;100985.15;;;24.23;30.49
47809;BME280;33573;38.790;-77.084;2023-09-08T12:15:46;100988.33;;;25.78;28.46
47809;BME280;33573;38.790;-77.084;2023-09-08T12:18:12;100989.65;;;25.00;29.56
47809;BME280;33573;38.790;-77.084;2023-09-08T12:20:38;100990.13;;;25.39;29.18
47809;BME280;33573;38.790;-77.084;2023-09-08T12:23:04;100982.89;;;24.59;29.96